Time;durP1;ratioP1;P1;durP2;ratioP2;P2;SDS_P1;SDS_P2;PMS_P1;PMS_P2;Temp;Humidity;BMP_temperature;BMP_pressure;BME280_temperature;BME280_humidity;BME280_pressure;Samples;Min_cycle;Max_cycle;Signal;HPM_P1;HPM_P2
2022/04/01 00:00:08;;;;;;;2.57;1.20;;;0.10;99.90;;;;;;5135838;27;20047;-29
2022/04/01 00:02:35;;;;;;;3.20;1.10;;;0.10;99.90;;;;;;5136114;27;20115;-28
2022/04/01 00:05:01;;;;;;;4.30;1.67;;;0.10;28.50;;;;;;5136831;27;20383;-28
2022/04/01 00:07:27;;;;;;;15.30;1.77;;;0.20;1.00;;;;;;5135955;27;20039;-27
2022/04/01 00:09:52;;;;;;;7.03;1.20;;;0.10;1.00;;;;;;5136193;27;20045;-28
2022/04/01 00:12:18;;;;;;;3.40;1.60;;;0.10;1.00;;;;;;5135547;27;20043;-27
2022/04/01 00:14:44;;;;;;;3.90;1.60;;;0.10;1.00;;;;;;5135725;27;20088;-27
2022/04/01 00:17:09;;;;;;;2.33;1.40;;;0.10;1.00;;;;;;5117530;27;20559;-26
2022/04/01 00:19:35;;;;;;;3.30;1.27;;;0.10;1.00;;;;;;5135733;27;20519;-26
2022/04/01 00:22:01;;;;;;;3.97;1.53;;;0.10;1.00;;;;;;5117523;27;20086;-26
2022/04/01 00:24:27;;;;;;;3.97;1.60;;;0.10;1.00;;;;;;5136472;27;20414;-26
2022/04/01 00:26:53;;;;;;;6.57;1.60;;;0.00;1.00;;;;;;5118287;27;20106;-26
2022/04/01 00:29:20;;;;;;;2.97;1.40;;;0.00;1.00;;;;;;5135582;27;20069;-25
2022/04/01 00:31:48;;;;;;;2.53;1.30;;;0.10;1.00;;;;;;5135489;27;20050;-25
2022/04/01 00:34:15;;;;;;;3.73;1.57;;;0.10;99.90;;;;;;5135340;27;20125;-25
2022/04/01 00:36:45;;;;;;;3.33;1.43;;;0.10;1.00;;;;;;5135392;27;20061;-25
2022/04/01 00:39:13;;;;;;;4.17;1.47;;;0.10;1.00;;;;;;5117546;27;20049;-24
2022/04/01 00:41:40;;;;;;;4.47;1.53;;;0.10;1.00;;;;;;5136158;27;20480;-24
2022/04/01 00:44:18;;;;;;;3.20;1.70;;;0.10;99.90;;;;;;5135263;27;20068;-24
2022/04/01 00:46:45;;;;;;;4.23;1.53;;;0.10;99.90;;;;;;5117149;27;20400;-24
2022/04/01 00:49:11;;;;;;;3.87;1.40;;;0.10;99.90;;;;;;5135175;27;20051;-24
2022/04/01 00:51:40;;;;;;;6.07;1.53;;;0.10;99.90;;;;;;5135762;27;20142;-24
2022/04/01 00:54:06;;;;;;;6.27;1.20;;;0.10;99.90;;;;;;5135557;27;20060;-25
2022/04/01 00:56:34;;;;;;;4.37;1.77;;;0.30;99.90;;;;;;5134582;27;20055;-24
2022/04/01 00:59:00;;;;;;;3.37;1.07;;;0.10;99.90;;;;;;5116971;27;20054;-25
2022/04/01 01:01:26;;;;;;;2.10;0.90;;;0.10;99.90;;;;;;5135014;27;20046;-24
2022/04/01 01:03:52;;;;;;;4.37;1.40;;;0.10;99.90;;;;;;5134941;27;20142;-24
2022/04/01 01:06:21;;;;;;;4.20;1.60;;;0.10;99.90;;;;;;5135210;27;20393;-24
2022/04/01 01:08:48;;;;;;;4.13;1.43;;;0.10;99.90;;;;;;5134007;27;20064;-24
2022/04/01 01:11:14;;;;;;;8.53;1.20;;;0.10;99.90;;;;;;5134919;27;20050;-24
2022/04/01 01:13:40;;;;;;;5.50;1.60;;;0.10;99.90;;;;;;5116459;27;20043;-23
2022/04/01 01:16:07;;;;;;;6.57;1.40;;;0.20;99.90;;;;;;5116551;27;20047;-23
2022/04/01 01:18:33;;;;;;;3.20;1.00;;;0.20;99.90;;;;;;5116709;27;20051;-24
2022/04/01 01:20:59;;;;;;;5.60;1.20;;;0.30;99.90;;;;;;5134747;27;20122;-23
2022/04/01 01:23:29;;;;;;;2.63;1.00;;;0.30;99.90;;;;;;5134694;27;20123;-23
2022/04/01 01:25:55;;;;;;;9.20;1.13;;;0.30;99.90;;;;;;5135020;27;20066;-24
2022/04/01 01:28:23;;;;;;;4.43;1.33;;;0.30;99.40;;;;;;5134646;27;20070;-23
2022/04/01 01:30:48;;;;;;;5.93;1.40;;;0.30;99.90;;;;;;5135079;28;20057;-23
2022/04/01 01:33:14;;;;;;;4.73;1.17;;;0.40;44.40;;;;;;5116651;28;20126;-23
2022/04/01 01:35:41;;;;;;;6.60;1.03;;;0.40;6.80;;;;;;5134589;28;20043;-23
2022/04/01 01:38:08;;;;;;;3.23;1.13;;;0.40;1.00;;;;;;5135145;28;20115;-23
2022/04/01 01:40:34;;;;;;;4.60;1.23;;;0.40;1.60;;;;;;5135128;28;20043;-23
2022/04/01 01:43:00;;;;;;;5.03;1.37;;;0.40;1.00;;;;;;5134200;28;20491;-23
2022/04/01 01:45:29;;;;;;;5.40;1.30;;;0.40;1.00;;;;;;5134759;28;20051;-23
2022/04/01 01:47:56;;;;;;;5.97;1.57;;;0.40;1.00;;;;;;5082818;28;20192;-23
2022/04/01 01:55:50;;;;;;;4.07;1.10;;;0.40;1.00;;;;;;5118456;28;20062;-22
2022/04/01 01:58:16;;;;;;;2.53;1.30;;;0.40;1.00;;;;;;5115639;28;20055;-22
2022/04/01 02:00:42;;;;;;;2.80;1.20;;;0.40;1.00;;;;;;5134340;28;20043;-22
2022/04/01 02:03:10;;;;;;;7.57;2.03;;;0.40;1.00;;;;;;5134567;28;20090;-22
2022/04/01 02:05:35;;;;;;;3.27;1.17;;;0.40;1.00;;;;;;5134265;28;20404;-23
2022/04/01 02:08:04;;;;;;;4.90;1.30;;;0.40;1.00;;;;;;5115980;28;20043;-23
2022/04/01 02:10:30;;;;;;;6.70;1.20;;;0.40;1.00;;;;;;5134268;28;20400;-23
2022/04/01 02:12:56;;;;;;;4.47;1.20;;;0.40;1.00;;;;;;5116780;28;20051;-23
2022/04/01 02:15:22;;;;;;;3.40;1.20;;;0.40;1.00;;;;;;5115921;28;20473;-23
2022/04/01 02:17:48;;;;;;;0.97;0.57;;;0.40;1.00;;;;;;5134284;28;20434;-23
2022/04/01 02:20:14;;;;;;;4.23;1.37;;;0.50;1.00;;;;;;5136883;27;20130;-22
2022/04/01 02:22:40;;;;;;;4.83;1.20;;;0.40;1.00;;;;;;5138038;27;20130;-22
2022/04/01 02:25:07;;;;;;;4.57;0.97;;;0.80;1.00;;;;;;5138013;27;20482;-22
2022/04/01 02:27:34;;;;;;;2.80;1.27;;;0.50;1.00;;;;;;5137912;27;20051;-22
2022/04/01 02:30:01;;;;;;;2.40;1.20;;;0.50;1.00;;;;;;5119810;27;20043;-23
2022/04/01 02:32:27;;;;;;;5.80;1.20;;;0.50;1.00;;;;;;5119673;27;20039;-23
2022/04/01 02:34:53;;;;;;;4.70;1.27;;;0.50;1.00;;;;;;5137990;27;20057;-23
2022/04/01 02:37:20;;;;;;;4.87;1.97;;;0.50;1.00;;;;;;5137786;27;20043;-22
2022/04/01 02:39:46;;;;;;;5.77;1.30;;;0.50;1.00;;;;;;5119484;27;20039;-23
2022/04/01 02:42:12;;;;;;;4.07;0.97;;;0.50;1.00;;;;;;5119302;27;20081;-23
2022/04/01 02:44:38;;;;;;;4.90;1.20;;;0.40;1.00;;;;;;5137572;27;20427;-23
2022/04/01 02:47:04;;;;;;;6.90;1.20;;;0.40;1.00;;;;;;5103307;27;20051;-23
2022/04/01 02:49:29;;;;;;;5.77;1.20;;;0.40;1.00;;;;;;5119295;27;20043;-23
2022/04/01 02:51:55;;;;;;;4.30;1.17;;;0.40;1.00;;;;;;5137484;27;20046;-23
2022/04/01 02:54:21;;;;;;;2.23;1.00;;;0.50;1.00;;;;;;5118942;27;20496;-23
2022/04/01 02:56:47;;;;;;;4.80;1.20;;;0.40;1.00;;;;;;5137560;27;20104;-23
2022/04/01 02:59:13;;;;;;;3.80;0.93;;;0.40;1.00;;;;;;5137882;27;20426;-23
2022/04/01 03:01:41;;;;;;;2.60;0.60;;;0.40;1.00;;;;;;5138125;27;20057;-23
2022/04/01 03:04:11;;;;;;;2.23;0.60;;;0.40;1.00;;;;;;5137271;27;20043;-23
2022/04/01 03:06:38;;;;;;;2.47;0.80;;;0.40;1.00;;;;;;5137296;27;20054;-23
2022/04/01 03:09:05;;;;;;;4.73;1.50;;;0.40;1.00;;;;;;5137228;27;20082;-23
2022/04/01 03:11:31;;;;;;;6.20;1.40;;;0.40;1.00;;;;;;5137123;27;20113;-23
2022/04/01 03:13:57;;;;;;;2.63;1.17;;;0.40;1.00;;;;;;5102617;27;20039;-23
2022/04/01 03:16:24;;;;;;;5.13;0.93;;;0.70;1.00;;;;;;5136977;27;20089;-24
2022/04/01 03:18:50;;;;;;;4.23;0.77;;;0.40;1.00;;;;;;5136710;27;20555;-24
2022/04/01 03:21:16;;;;;;;3.63;1.10;;;0.50;99.90;;;;;;5136946;27;20083;-24
2022/04/01 03:23:45;;;;;;;4.97;1.00;;;0.50;99.90;;;;;;5118493;27;20074;-24
2022/04/01 03:26:11;;;;;;;3.73;0.83;;;0.50;1.00;;;;;;5137448;27;20126;-24
2022/04/01 03:28:37;;;;;;;4.17;0.90;;;0.50;99.90;;;;;;5136861;27;20090;-24
2022/04/01 03:31:03;;;;;;;4.67;0.90;;;0.50;99.90;;;;;;5135744;27;20043;-24
2022/04/01 03:33:31;;;;;;;6.27;2.20;;;0.50;99.90;;;;;;5137174;27;20051;-24
2022/04/01 03:35:57;;;;;;;3.87;1.03;;;0.50;1.00;;;;;;5136642;27;20054;-25
2022/04/01 03:38:23;;;;;;;3.73;0.90;;;0.40;1.00;;;;;;5136561;27;20043;-24
2022/04/01 03:40:51;;;;;;;3.50;0.83;;;0.40;1.00;;;;;;5137079;27;20086;-24
2022/04/01 03:43:21;;;;;;;8.47;1.37;;;0.40;1.00;;;;;;5136584;27;20140;-24
2022/04/01 03:45:48;;;;;;;3.20;1.30;;;0.50;1.00;;;;;;5137086;27;20416;-24
2022/04/01 03:48:44;;;;;;;4.63;1.10;;;0.50;99.90;;;;;;5136400;27;20047;-24
2022/04/01 03:51:16;;;;;;;6.13;0.87;;;0.50;99.90;;;;;;5136672;27;20050;-24
2022/04/01 03:53:52;;;;;;;3.47;1.33;;;0.50;99.90;;;;;;5136757;27;20050;-24
2022/04/01 03:56:23;;;;;;;6.90;1.10;;;0.50;99.90;;;;;;5136243;27;20058;-24
2022/04/01 03:58:49;;;;;;;4.00;0.70;;;0.60;99.90;;;;;;5136846;27;20136;-24
2022/04/01 04:01:15;;;;;;;5.30;1.00;;;0.60;99.90;;;;;;5118309;27;20046;-24
2022/04/01 04:03:43;;;;;;;3.83;1.20;;;0.60;99.90;;;;;;5136133;27;20047;-24
2022/04/01 04:06:10;;;;;;;7.13;1.43;;;0.60;99.90;;;;;;5136058;27;20092;-24
2022/04/01 04:08:37;;;;;;;6.67;1.33;;;0.60;99.90;;;;;;5136838;27;20049;-24
2022/04/01 04:11:04;;;;;;;8.23;1.43;;;0.60;99.90;;;;;;5135943;27;20540;-25
2022/04/01 04:13:29;;;;;;;7.30;1.83;;;0.60;99.90;;;;;;5135768;27;20083;-25
2022/04/01 04:16:04;;;;;;;6.20;0.90;;;0.60;99.90;;;;;;5118150;27;20075;-24
2022/04/01 04:18:40;;;;;;;3.37;0.93;;;0.60;99.90;;;;;;5135867;27;20047;-25
2022/04/01 04:21:10;;;;;;;6.80;1.40;;;0.60;99.90;;;;;;5117910;27;20086;-24
2022/04/01 04:23:47;;;;;;;4.50;1.33;;;0.60;99.90;;;;;;5136287;27;20035;-24
2022/04/01 04:26:16;;;;;;;6.40;1.33;;;0.60;99.90;;;;;;5135594;27;20057;-25
2022/04/01 04:28:54;;;;;;;7.40;1.80;;;0.60;99.90;;;;;;5135624;27;20054;-25
2022/04/01 04:31:26;;;;;;;5.30;1.30;;;0.60;99.90;;;;;;5135499;27;20508;-24
2022/04/01 04:33:55;;;;;;;3.97;1.60;;;0.60;99.90;;;;;;5136002;27;20047;-25
2022/04/01 04:36:27;;;;;;;10.67;3.17;;;0.60;99.90;;;;;;5100062;27;20043;-25
2022/04/01 04:38:54;;;;;;;6.83;1.43;;;0.80;99.90;;;;;;5135148;27;20488;-25
2022/04/01 04:41:21;;;;;;;3.37;1.37;;;0.70;99.90;;;;;;5117071;27;20043;-25
2022/04/01 04:43:50;;;;;;;6.63;1.70;;;0.60;99.90;;;;;;5117094;27;20054;-25
2022/04/01 04:46:17;;;;;;;4.57;1.03;;;0.70;99.90;;;;;;5117448;27;20039;-25
2022/04/01 04:48:46;;;;;;;6.87;2.00;;;0.60;99.90;;;;;;5117989;27;20047;-27
2022/04/01 04:51:12;;;;;;;3.27;0.90;;;0.70;99.90;;;;;;5135762;27;20063;-27
2022/04/01 04:53:39;;;;;;;5.43;1.37;;;0.70;99.90;;;;;;5135103;27;20047;-27
2022/04/01 04:56:06;;;;;;;2.80;1.10;;;0.70;99.90;;;;;;5116985;27;20055;-27
2022/04/01 04:58:39;;;;;;;3.60;1.23;;;0.60;99.90;;;;;;5134857;27;20509;-27
2022/04/01 05:01:24;;;;;;;4.18;1.05;;;0.60;1.00;;;;;;5135006;27;20046;-27
2022/04/01 05:04:09;;;;;;;5.07;1.23;;;0.60;99.90;;;;;;5116579;27;20084;-28
2022/04/01 05:06:42;;;;;;;5.07;1.13;;;0.60;99.90;;;;;;5135210;27;20082;-28
2022/04/01 05:09:21;;;;;;;6.43;1.25;;;0.60;99.90;;;;;;5135512;27;20043;-27
2022/04/01 05:12:07;;;;;;;7.47;1.73;;;0.70;99.90;;;;;;5135333;27;20092;-27
2022/04/01 05:14:49;;;;;;;4.63;1.30;;;0.70;99.90;;;;;;5134622;27;20039;-28
2022/04/01 05:17:29;;;;;;;3.67;0.90;;;0.70;99.90;;;;;;5134839;27;20404;-28
2022/04/01 05:20:02;;;;;;;1.83;0.93;;;0.80;99.90;;;;;;5117138;27;20031;-28
2022/04/01 05:22:48;;;;;;;5.15;1.25;;;0.80;99.90;;;;;;5099754;27;20047;-28
2022/04/01 05:25:18;;;;;;;2.10;1.23;;;0.80;99.90;;;;;;5135602;27;20039;-28
2022/04/01 05:27:49;;;;;;;4.13;1.07;;;0.80;99.90;;;;;;5134668;27;20053;-28
2022/04/01 05:30:16;;;;;;;3.90;1.10;;;0.80;99.90;;;;;;5135327;28;20053;-28
2022/04/01 05:33:00;;;;;;;2.67;1.03;;;0.70;99.90;;;;;;5116252;28;20047;-27
2022/04/01 05:35:32;;;;;;;2.90;1.08;;;0.80;99.90;;;;;;5117077;28;20060;-28
2022/04/01 05:37:59;;;;;;;4.93;1.13;;;0.80;99.90;;;;;;5116503;28;20065;-27
2022/04/01 05:40:28;;;;;;;6.97;1.10;;;0.80;99.90;;;;;;5134583;28;20203;-27
2022/04/01 05:42:56;;;;;;;5.43;1.17;;;0.80;99.90;;;;;;5116481;28;20400;-28
2022/04/01 05:45:25;;;;;;;1.77;0.90;;;0.80;99.90;;;;;;5134494;28;20046;-27
2022/04/01 05:47:52;;;;;;;4.27;1.03;;;0.80;99.90;;;;;;5134773;28;20059;-27
2022/04/01 05:50:19;;;;;;;6.30;1.00;;;0.80;99.90;;;;;;5134716;28;20051;-28
2022/04/01 05:52:50;;;;;;;2.87;0.90;;;0.90;99.90;;;;;;5134648;28;20126;-27
2022/04/01 05:55:19;;;;;;;3.03;0.57;;;0.80;99.90;;;;;;5118800;27;20053;-28
2022/04/01 05:57:45;;;;;;;7.70;1.13;;;0.90;99.90;;;;;;5138536;27;20051;-27
2022/04/01 06:00:12;;;;;;;2.70;1.57;;;0.90;99.90;;;;;;5139066;27;20214;-27
2022/04/01 06:02:58;;;;;;;4.63;1.03;;;0.90;99.90;;;;;;5120258;27;20054;-27
2022/04/01 06:05:39;;;;;;;7.67;1.40;;;0.90;99.90;;;;;;5137904;27;20488;-27
2022/04/01 06:08:17;;;;;;;5.93;1.40;;;0.90;99.90;;;;;;5138278;27;20043;-27
2022/04/01 06:11:01;;;;;;;8.37;1.70;;;0.90;99.90;;;;;;5138527;27;20488;-27
2022/04/01 06:14:05;;;;;;;7.60;1.47;;;0.90;99.90;;;;;;5138113;27;20089;-27
2022/04/01 06:16:44;;;;;;;;;;;1.00;99.90;;;;;;5138772;27;20050;-27
2022/04/01 06:19:34;;;;;;;5.33;1.47;;;1.00;99.90;;;;;;5138027;27;19926;-27
2022/04/01 06:22:05;;;;;;;6.23;1.10;;;1.00;99.90;;;;;;5119761;27;20123;-27
2022/04/01 06:24:52;;;;;;;2.77;0.93;;;1.00;99.90;;;;;;5120464;27;20039;-27
2022/04/01 06:27:22;;;;;;;11.83;2.40;;;1.00;99.90;;;;;;5138526;27;20127;-27
2022/04/01 06:30:02;;;;;;;6.37;2.37;;;1.10;99.90;;;;;;5119827;27;20195;-26
2022/04/01 06:32:40;;;;;;;5.40;2.07;;;1.10;99.90;;;;;;5137809;27;20054;-27
2022/04/01 06:35:29;;;;;;;13.43;2.20;;;1.10;99.90;;;;;;5119339;27;20046;-27
2022/04/01 06:38:03;;;;;;;6.20;1.23;;;1.20;99.90;;;;;;5120356;27;20447;-27
2022/04/01 06:40:58;;;;;;;6.57;1.40;;;1.20;99.90;;;;;;5138242;27;20051;-27
2022/04/01 06:43:25;;;;;;;5.73;1.60;;;1.20;99.90;;;;;;5093125;27;20055;-27
2022/04/01 06:45:51;;;;;;;2.27;0.70;;;1.30;99.90;;;;;;5137214;27;20050;-27
2022/04/01 06:48:17;;;;;;;5.57;0.67;;;1.30;99.90;;;;;;5137768;27;20043;-27
2022/04/01 06:50:49;;;;;;;3.23;1.30;;;1.30;99.90;;;;;;5137407;27;20035;-27
2022/04/01 06:53:16;;;;;;;1.83;0.90;;;1.40;99.90;;;;;;5137774;27;20051;-27
2022/04/01 06:55:42;;;;;;;6.23;1.33;;;1.30;99.90;;;;;;5137350;27;20098;-27
2022/04/01 06:58:11;;;;;;;5.83;1.30;;;1.80;99.90;;;;;;5119314;27;20054;-27
2022/04/01 07:00:38;;;;;;;6.63;1.17;;;1.50;99.90;;;;;;5137231;27;20047;-27
2022/04/01 07:03:04;;;;;;;4.03;0.90;;;2.30;99.90;;;;;;5137787;27;20120;-27
2022/04/01 07:05:30;;;;;;;1.93;0.90;;;1.60;99.90;;;;;;5100699;28;20044;-31
2022/04/01 07:07:56;;;;;;;4.33;1.33;;;1.50;99.90;;;;;;5118521;27;20554;-30
2022/04/01 07:10:22;;;;;;;10.60;2.37;;;1.40;99.90;;;;;;5136995;27;20051;-28
2022/04/01 07:12:51;;;;;;;3.20;1.00;;;1.60;99.90;;;;;;5119620;27;20129;-28
2022/04/01 07:15:17;;;;;;;7.17;1.47;;;1.70;99.90;;;;;;5137092;27;20039;-29
2022/04/01 07:17:43;;;;;;;6.63;1.10;;;1.50;99.90;;;;;;5118610;27;20510;-29
2022/04/01 07:20:11;;;;;;;4.80;1.20;;;1.60;99.90;;;;;;5118538;27;20114;-29
2022/04/01 07:22:38;;;;;;;4.83;1.23;;;2.00;99.90;;;;;;5119349;27;20047;-29
2022/04/01 07:25:05;;;;;;;3.33;0.93;;;2.40;99.90;;;;;;5136789;27;20078;-30
2022/04/01 07:27:33;;;;;;;3.83;1.30;;;2.10;99.90;;;;;;5118532;27;20385;-30
2022/04/01 07:29:58;;;;;;;1.90;1.00;;;2.20;99.90;;;;;;5118572;27;20169;-30
2022/04/01 07:32:29;;;;;;;5.40;1.17;;;2.20;99.90;;;;;;5136560;27;20124;-31
2022/04/01 07:34:55;;;;;;;2.30;0.60;;;2.30;99.90;;;;;;5119292;27;20172;-31
2022/04/01 07:37:23;;;;;;;3.77;1.23;;;2.40;99.90;;;;;;5137154;27;20489;-30
2022/04/01 07:39:56;;;;;;;4.20;0.90;;;2.50;99.90;;;;;;5118208;27;20074;-31
2022/04/01 07:42:22;;;;;;;3.38;1.38;;;2.60;99.90;;;;;;5137280;27;20046;-30
2022/04/01 07:44:49;;;;;;;4.53;1.03;;;2.70;99.90;;;;;;5118092;27;20499;-30
2022/04/01 07:47:15;;;;;;;5.50;1.27;;;3.50;99.90;;;;;;5136853;27;20537;-30
2022/04/01 07:49:41;;;;;;;3.90;1.00;;;2.90;99.90;;;;;;5136367;27;20082;-29
2022/04/01 07:52:09;;;;;;;3.40;1.03;;;2.80;40.90;;;;;;5136514;27;20118;-29
2022/04/01 07:54:35;;;;;;;3.30;0.73;;;2.80;45.90;;;;;;5117848;27;20131;-29
2022/04/01 07:57:05;;;;;;;5.57;1.10;;;2.90;38.30;;;;;;5135657;27;20054;-29
2022/04/01 07:59:31;;;;;;;2.27;0.70;;;3.00;1.00;;;;;;5136072;27;20054;-29
2022/04/01 08:01:57;;;;;;;3.17;0.90;;;3.10;1.00;;;;;;5136506;27;20047;-30
2022/04/01 08:04:25;;;;;;;3.63;0.80;;;3.50;1.00;;;;;;5117576;27;20069;-30
2022/04/01 08:06:52;;;;;;;2.53;0.90;;;3.10;1.00;;;;;;5118020;27;20392;-30
2022/04/01 08:09:18;;;;;;;4.63;0.90;;;3.10;1.00;;;;;;5135917;27;20047;-31
2022/04/01 08:11:43;;;;;;;3.57;1.23;;;3.70;1.00;;;;;;5135800;27;20084;-31
2022/04/01 08:14:09;;;;;;;4.07;1.60;;;3.40;1.00;;;;;;5117879;27;20039;-30
2022/04/01 08:16:35;;;;;;;3.07;0.90;;;3.20;1.00;;;;;;5136159;27;20043;-31
2022/04/01 08:19:02;;;;;;;3.97;0.80;;;3.40;1.00;;;;;;5136202;27;20479;-30
2022/04/01 08:21:28;;;;;;;2.87;0.87;;;3.20;1.00;;;;;;5135707;27;20130;-30
2022/04/01 08:23:54;;;;;;;2.57;1.30;;;3.30;1.00;;;;;;5136140;27;20084;-31
2022/04/01 08:26:20;;;;;;;6.07;1.00;;;3.20;1.00;;;;;;5135564;27;20099;-31
2022/04/01 08:28:45;;;;;;;4.83;1.13;;;3.40;1.00;;;;;;5117728;27;20039;-31
2022/04/01 08:31:11;;;;;;;1.98;0.90;;;3.20;1.00;;;;;;5117700;27;20043;-31
2022/04/01 08:33:37;;;;;;;3.88;1.10;;;3.00;1.00;;;;;;5135849;27;20054;-31
2022/04/01 08:36:04;;;;;;;2.87;0.90;;;3.30;1.00;;;;;;5117072;27;20066;-31
2022/04/01 08:38:30;;;;;;;4.40;1.92;;;3.20;1.00;;;;;;5117268;27;20057;-31
2022/04/01 08:40:56;;;;;;;2.80;1.07;;;3.20;1.00;;;;;;5135309;27;20043;-32
2022/04/01 08:43:27;;;;;;;6.30;2.40;;;2.90;1.00;;;;;;5135315;27;20086;-31
2022/04/01 08:45:54;;;;;;;1.77;1.10;;;3.20;1.00;;;;;;5134871;27;20487;-32
2022/04/01 08:48:20;;;;;;;2.42;0.80;;;3.20;1.00;;;;;;5135774;27;20043;-33
2022/04/01 08:50:45;;;;;;;4.78;1.48;;;3.30;1.00;;;;;;5116891;27;20131;-32
2022/04/01 08:53:11;;;;;;;2.97;0.60;;;3.40;1.00;;;;;;5135110;27;20039;-32
2022/04/01 08:55:37;;;;;;;1.73;1.00;;;3.90;1.00;;;;;;5113444;28;20055;-31
2022/04/01 08:58:04;;;;;;;3.38;0.98;;;3.60;1.00;;;;;;5113915;28;20048;-32
2022/04/01 09:00:30;;;;;;;5.50;1.10;;;3.80;1.00;;;;;;5114429;28;20116;-32
2022/04/01 09:03:08;;;;;;;2.13;0.93;;;3.80;1.00;;;;;;5113978;28;20052;-32
2022/04/01 09:05:35;;;;;;;2.65;0.90;;;4.40;1.00;;;;;;5114349;28;20480;-32
2022/04/01 09:08:08;;;;;;;2.05;0.63;;;4.20;1.00;;;;;;5114326;28;20047;-32
2022/04/01 09:10:53;;;;;;;;;;;4.00;1.00;;;;;;5115634;28;20427;-31
2022/04/01 09:13:19;;;;;;;2.60;0.90;;;4.10;1.00;;;;;;5114813;28;19924;-32
2022/04/01 09:15:45;;;;;;;2.90;0.70;;;4.20;1.00;;;;;;5114384;28;20110;-31
2022/04/01 09:18:11;;;;;;;2.72;1.00;;;4.40;1.00;;;;;;5114488;28;20054;-31
2022/04/01 09:20:50;;;;;;;4.78;1.15;;;4.50;1.00;;;;;;5114196;28;20389;-31
2022/04/01 09:23:23;;;;;;;4.88;1.10;;;4.60;1.00;;;;;;5115082;28;20039;-32
2022/04/01 09:25:51;;;;;;;3.10;0.80;;;5.00;1.00;;;;;;5113550;28;20047;-32
2022/04/01 09:28:27;;;;;;;5.15;1.65;;;4.90;1.00;;;;;;5113656;28;20052;-31
2022/04/01 09:31:14;;;;;;;3.97;1.30;;;5.10;1.00;;;;;;5113893;28;20079;-32
2022/04/01 09:33:42;;;;;;;4.40;1.13;;;4.90;1.00;;;;;;5114329;28;20388;-31
2022/04/01 09:36:26;;;;;;;3.55;1.30;;;5.00;1.00;;;;;;5113999;28;20108;-31
2022/04/01 09:39:02;;;;;;;2.60;1.20;;;4.90;1.00;;;;;;5114102;28;20044;-31
2022/04/01 09:41:36;;;;;;;3.13;1.20;;;4.80;1.00;;;;;;5112796;28;20043;-32
2022/04/01 09:44:12;;;;;;;3.70;1.40;;;4.70;1.00;;;;;;5113954;28;20485;-31
2022/04/01 09:46:46;;;;;;;3.55;0.85;;;4.90;1.00;;;;;;5114535;28;20051;-31
2022/04/01 09:49:31;;;;;;;4.43;1.52;;;5.20;1.00;;;;;;5113021;28;20048;-31
2022/04/01 09:51:57;;;;;;;3.88;1.40;;;5.00;1.00;;;;;;5114016;28;20044;-30
2022/04/01 09:54:24;;;;;;;3.22;1.10;;;4.80;1.00;;;;;;5114445;28;20051;-30
2022/04/01 09:56:54;;;;;;;1.30;0.75;;;5.10;1.00;;;;;;5129213;28;20527;-30
2022/04/01 09:59:21;;;;;;;2.53;0.90;;;4.90;1.00;;;;;;5134844;28;20055;-30
2022/04/01 10:01:48;;;;;;;3.90;0.90;;;4.70;1.00;;;;;;5116262;28;20082;-30
2022/04/01 10:04:14;;;;;;;3.10;0.80;;;4.60;1.00;;;;;;5134269;28;20042;-30
2022/04/01 10:06:41;;;;;;;2.92;0.88;;;4.60;1.00;;;;;;5134281;28;20047;-30
2022/04/01 10:09:11;;;;;;;3.65;0.88;;;5.00;1.00;;;;;;5116443;28;20046;-30
2022/04/01 10:11:39;;;;;;;3.22;0.65;;;5.20;99.90;;;;;;5134803;28;20054;-29
2022/04/01 10:14:26;;;;;;;3.45;0.88;;;5.20;99.90;;;;;;5115842;28;20043;-29
2022/04/01 10:16:54;;;;;;;1.23;0.55;;;5.20;99.90;;;;;;5134481;28;20182;-30
2022/04/01 10:19:28;;;;;;;2.30;0.60;;;5.10;99.90;;;;;;5134129;28;20043;-28
2022/04/01 10:21:53;;;;;;;2.97;0.73;;;5.50;99.90;;;;;;5134754;28;20047;-29
2022/04/01 10:24:47;;;;;;;4.38;1.75;;;5.70;99.90;;;;;;5134046;28;20062;-29
2022/04/01 10:27:21;;;;;;;2.42;1.00;;;5.60;99.90;;;;;;5116902;28;20090;-29
2022/04/01 10:29:47;;;;;;;1.98;0.70;;;5.70;99.90;;;;;;5134606;28;20066;-28
2022/04/01 10:32:41;;;;;;;0.95;0.40;;;6.20;99.90;;;;;;5133977;28;20050;-28
2022/04/01 10:35:19;;;;;;;0.75;0.32;;;5.60;99.90;;;;;;5129999;28;20051;-28
2022/04/01 10:37:45;;;;;;;1.60;0.60;;;5.30;99.90;;;;;;5134553;28;20047;-28
2022/04/01 10:40:18;;;;;;;2.83;0.60;;;5.20;99.90;;;;;;5134896;27;20169;-29
2022/04/01 10:42:46;;;;;;;1.77;0.68;;;5.60;99.90;;;;;;5137670;27;20082;-28
2022/04/01 10:45:17;;;;;;;1.75;0.80;;;5.80;99.90;;;;;;5117142;27;20058;-28
2022/04/01 10:53:34;;;;;;;3.35;0.70;;;5.90;99.90;;;;;;5137242;27;20058;-29
2022/04/01 10:56:22;;;;;;;1.25;0.40;;;5.80;99.90;;;;;;5137946;27;20047;-28
2022/04/01 10:59:07;;;;;;;2.45;0.30;;;5.60;99.90;;;;;;5121274;27;20051;-29
2022/04/01 11:01:35;;;;;;;2.53;0.82;;;5.30;99.90;;;;;;5137996;27;20043;-28
2022/04/01 11:04:13;;;;;;;2.75;0.82;;;5.50;99.90;;;;;;5119073;27;20050;-28
2022/04/01 11:06:54;;;;;;;3.67;0.70;;;5.50;99.90;;;;;;5137540;27;20043;-28
2022/04/01 11:09:40;;;;;;;3.05;1.23;;;5.70;99.90;;;;;;5137290;27;20456;-30
2022/04/01 11:12:18;;;;;;;4.00;0.50;;;5.80;99.90;;;;;;5136881;27;20404;-28
2022/04/01 11:17:49;;;;;;;1.15;0.40;;;6.00;99.90;;;;;;5137060;27;20051;-28
2022/04/01 11:20:27;;;;;;;1.00;0.38;;;5.30;99.90;;;;;;5136867;27;20051;-28
2022/04/01 11:22:53;;;;;;;5.18;1.08;;;5.60;99.90;;;;;;5119694;27;20057;-28
2022/04/01 11:25:25;;;;;;;4.60;1.02;;;5.30;99.90;;;;;;5137418;27;20443;-29
2022/04/01 11:28:01;;;;;;;4.85;0.60;;;5.60;99.90;;;;;;5136440;27;20054;-30
2022/04/01 11:30:30;;;;;;;4.32;0.70;;;5.70;99.90;;;;;;5137263;27;20083;-30
2022/04/01 11:33:15;;;;;;;3.53;1.30;;;6.10;99.90;;;;;;5118212;27;20050;-29
2022/04/01 11:35:44;;;;;;;2.72;0.70;;;5.50;99.90;;;;;;5118793;27;20388;-29
2022/04/01 11:38:18;;;;;;;4.60;0.88;;;5.30;99.90;;;;;;5118232;27;20130;-28
2022/04/01 11:40:45;;;;;;;2.72;0.90;;;5.30;99.90;;;;;;5118457;27;20051;-30
2022/04/01 11:43:14;;;;;;;2.70;0.90;;;5.00;99.90;;;;;;5118954;27;20108;-28
2022/04/01 11:45:54;;;;;;;1.00;0.45;;;5.20;99.90;;;;;;5136398;27;20050;-29
2022/04/01 11:48:33;;;;;;;3.97;0.55;;;5.10;99.90;;;;;;5118618;27;20057;-28
2022/04/01 11:51:10;;;;;;;1.17;0.50;;;5.40;99.90;;;;;;5136622;27;20093;-28
2022/04/01 11:53:49;;;;;;;4.20;1.10;;;4.90;99.90;;;;;;5117881;27;20126;-28
2022/04/01 11:56:17;;;;;;;2.15;0.70;;;5.00;99.90;;;;;;5136271;27;20055;-29
2022/04/01 11:58:56;;;;;;;3.10;0.70;;;4.80;99.90;;;;;;5118258;27;20061;-29
2022/04/01 12:01:33;;;;;;;1.63;0.52;;;4.10;99.90;;;;;;5136121;27;20511;-28
2022/04/01 12:04:12;;;;;;;4.78;1.00;;;4.60;99.90;;;;;;5117921;27;20074;-28
2022/04/01 12:09:33;;;;;;;2.85;0.68;;;5.10;99.90;;;;;;5136107;27;20065;-29
2022/04/01 12:12:01;;;;;;;8.40;0.68;;;4.80;99.90;;;;;;5136190;27;20126;-28
2022/04/01 12:14:28;;;;;;;1.23;0.77;;;4.90;99.90;;;;;;5136304;27;20092;-29
2022/04/01 12:16:54;;;;;;;3.80;0.60;;;5.10;99.90;;;;;;5117085;27;20040;-28
2022/04/01 12:19:21;;;;;;;2.45;0.60;;;5.10;99.90;;;;;;5117589;27;20480;-28
2022/04/01 12:21:54;;;;;;;2.72;0.68;;;5.20;99.90;;;;;;5100925;27;20039;-28
2022/04/01 12:24:20;;;;;;;2.20;0.45;;;5.40;99.90;;;;;;5101499;27;20364;-29
2022/04/01 12:26:47;;;;;;;2.05;0.50;;;5.00;99.90;;;;;;5136119;27;20054;-28
2022/04/01 12:29:21;;;;;;;1.60;0.50;;;5.00;99.90;;;;;;5135505;27;20546;-28
2022/04/01 12:31:51;;;;;;;;;;;5.10;99.90;;;;;;5117447;27;20043;-29
2022/04/01 12:34:16;;;;;;;1.40;0.60;;;5.20;99.90;;;;;;5117177;27;19920;-29
2022/04/01 12:36:50;;;;;;;3.08;0.68;;;5.30;99.90;;;;;;5135639;27;20103;-29
2022/04/01 12:39:16;;;;;;;2.25;0.70;;;5.30;99.90;;;;;;5135437;27;20057;-29
2022/04/01 12:42:08;;;;;;;2.90;0.70;;;5.40;99.90;;;;;;5135814;27;20039;-30
2022/04/01 12:44:36;;;;;;;2.95;0.80;;;5.40;99.90;;;;;;5135831;27;20039;-29
2022/04/01 12:47:03;;;;;;;2.53;0.85;;;5.90;99.90;;;;;;5135193;27;20124;-28
2022/04/01 12:49:33;;;;;;;3.55;1.00;;;5.90;99.90;;;;;;5117003;27;20043;-29
2022/04/01 12:52:02;;;;;;;2.67;0.55;;;6.10;99.90;;;;;;5116993;27;20130;-29
2022/04/01 12:54:39;;;;;;;3.10;0.90;;;6.50;99.90;;;;;;5117045;27;20046;-29
2022/04/01 12:57:10;;;;;;;2.47;0.70;;;6.00;99.90;;;;;;5134894;27;20059;-29
2022/04/01 12:59:41;;;;;;;2.88;0.70;;;5.70;99.90;;;;;;5135001;27;20473;-29
2022/04/01 13:02:30;;;;;;;1.23;0.70;;;5.80;99.90;;;;;;5117619;27;20089;-29
2022/04/01 13:04:57;;;;;;;5.05;1.17;;;6.00;99.90;;;;;;5135745;27;20117;-28
2022/04/01 13:07:33;;;;;;;3.05;0.80;;;5.60;99.90;;;;;;5134925;27;20043;-28
2022/04/01 13:10:13;;;;;;;2.88;0.80;;;5.30;99.90;;;;;;5134961;27;20039;-29
2022/04/01 13:12:43;;;;;;;4.00;1.38;;;5.30;99.90;;;;;;5135417;27;20116;-28
2022/04/01 13:15:15;;;;;;;2.85;0.70;;;4.90;99.90;;;;;;5135204;27;20086;-28
2022/04/01 13:17:52;;;;;;;3.45;0.77;;;4.90;99.90;;;;;;5116769;28;20063;-29
2022/04/01 13:20:24;;;;;;;6.00;1.20;;;4.90;99.90;;;;;;5134569;27;20082;-28
2022/04/01 13:22:50;;;;;;;3.13;0.70;;;4.80;99.90;;;;;;5135461;27;20035;-29
2022/04/01 13:25:16;;;;;;;3.15;0.80;;;4.90;99.90;;;;;;5134984;27;20039;-29
2022/04/01 13:27:43;;;;;;;4.43;0.63;;;5.00;99.90;;;;;;5134575;27;20039;-28
2022/04/01 13:30:11;;;;;;;1.85;0.90;;;5.70;99.90;;;;;;5134534;27;20133;-29
2022/04/01 13:32:37;;;;;;;6.75;1.30;;;5.40;99.90;;;;;;5134503;27;20076;-29